Portada
METAR-TAF:

METAR-TAF

Aeroports :

Bodensee

Friedrichshafen, Alemanya

latitud: 47-40N, longitud: 009-31E, altitud: 416 m

Observació

L'informe es va fer fa 35 minuts, a les 20:50 UTC
Vent 2 kt amb direcció variable
Temperatura 21°C
Humitat 64%
Pressió 1016 hPa
Visibilitat 10 km o més

METAR: EDNY 192050Z AUTO VRB02KT 9999 // NCD 21/14 Q1016

Hora: 23:25 (21:25 UTC)

Pronòstic

L'informe es va fer fa 4 hores i 25 minuts, a les 17:00 UTC
Pronòstic vàlid del 19 a les 18 UTC al 20 a les 18 UTC
Vent 5 kt del Oest
Visibilitat 10 km o més
sense núvols per sota de 1500 mi sense presència de cumulonimbus.
Evolucionant progressivament
l' 19 a les 18 UTC al 19 a les 20 UTC
Vent 4 kt del Nord/Nord-Est
Evolucionant progressivament
l' 20 a les 08 UTC al 20 a les 10 UTC
Vent 5 kt del Oest/Sud-Oest

TAF: EDNY 191700Z 1918/2018 28005KT CAVOK BECMG 1918/1920 03004KT BECMG 2008/2010 24005KT

Observacions i pronòstics meteorològics de més de 4000 aeroports (METAR i TAF).

Les estacions disponibles són els punts grocs i vermells al mapa.

Posi el ratolí al punt desitjat per veure el nom de l'estació.

Feu clic per veure les observacions i els pronòstics meteorològics.

Per canviar el mapa: feu clic els botons verds amb una creu de color negre per apropar; al botó verd amb un guió per allunyar la imatge; o en les fletxes verdes per a mapes adjacents.


METAR-TAF: